Terminal Aerodrome Forecast
Issued by NWS Flagstaff, AZ

Home | Current Version | Previous Version | Text Only | Print | Product List | Glossary On
Versions: 1 2 3 4 5 6 7 8 9 10 11 12 13 14 15 16 17 18 19 20 21 22 23 24
000
FTUS45 KFGZ 200200 AAA
TAFINW
TAF AMD
KINW 200214Z 2002/2024 09006KT P6SM FEW010 BKN250
      TEMPO 2004/2008 6SM BR SCT002 BKN012
     FM200800 00000KT 6SM BR SCT002 BKN012
      TEMPO 2008/2012 1SM BR OVC002
     FM201800 11006KT P6SM SCT005 SCT010=

USA.gov is the U.S. government's official web portal to all federal, state and local government web resources and services.